岡山グライダークラブ活動状況掲示板あなたは無料カウンター人目の訪問者です

岡山グライダークラブ
岡山市浦安南町639-1 岡南飛行場
 使用機:シャイベ式 SF25C型 ファルケ   JA2330
      ヴァレンティン式17E型 タイフーン  JA2342
 練習日:毎日曜日  クラブルーム:電話 086-265-1810
この掲示板は岡山グライダークラブの活動状況をお知らせする掲示板です。
!!!この掲示板は投稿規制をしています。!!!
クラブ関連各種情報は 岡山グライダークラブクラブルーム      を       .
  ブリーフイング情報は  岡山グライダークラブブリーフィングルーム  をご覧下さい。 .
※写真はクリックすると拡大して見ることが出来ます。
岡南飛行場へのアクセス等は 岡南飛行場管理事務所 をご覧ください。
クラブの ホームページ ができました。

 
04月12日
by OGC at 2020/4/12(日) 16:00:41 No.20200412155907  削除コメント

04月12日
本日の参加者
  会員      11名
  その他      0名

METAR
RJBK 120000Z 04006KT 010V070 06KM FEW009ST SCT035CU BKN050SC 08/07 Q1013 A2994
RJOB 120000Z 07009KT 4500 -RA BR BCFG FEW000 BKN020 BKN030 06/05 Q1013
RJOT 120000Z 08008KT 7000 -RA FEW003 SCT010 BKN030 07/07 Q1012
RJOA 120000Z 07015KT 5000 -RA BCFG BR FEW000 SCT012 BKN035 05/05 Q1011
TAF
RJOB 112307Z 1200/1306 04012KT 6000 -RA BCFG FEW000 SCT010 BKN025
     TEMPO 1200/1206 4000 RA BR BCFG
     TEMPO 1206/1212 03015G25KT 4000 RA BR BCFG
     TEMPO 1212/1218 4000 SHRA BR BCFG FEW000 SCT005 BKN008
     BECMG 1218/1221 34007KT
     TEMPO 1218/1300 4000 -SHRA BR BCFG
RJOT 112307Z 1200/1306 06013KT 4000 -RA BR FEW002 BKN008 BKN030
     TEMPO 1203/1209 1500 RA BR BCFG FEW000 SCT003 BKN005
     TEMPO 1209/1215 06018G28KT 2000 RA BR BCFG FEW000 SCT003 BKN005
     BECMG 1218/1221 25008KT 8000 NSW FEW005 BKN020 BKN040
     BECMG 1300/1303 28019KT
     TEMPO 1303/1306 28023G33KT 4000 SHRA BR
RJOA 112309Z 1200/1306 07015KT 7000 -RA FEW002 SCT015 BKN040
     TEMPO 1200/1203 4000 RA BR BCFG FEW000 BKN008 BKN020
     TEMPO 1203/1215 3000 RA BR BCFG FEW000 SCT003 BKN005
     BECMG 1212/1215 34015KT
     BECMG 1221/1300 31026KT
     TEMPO 1300/1306 31027G37KT

本日は、雨のためフライトは中止、機体の整備を行い昼過ぎに解散しました。
また、新型コロナウイルスの感染拡大に伴う緊急事態宣言を受け、GW明けの5月6日まで当クラブのフライトを自粛することといたしました。
次の活動日は5月10日になります。

解散    13:30

本日のフライトはありません。


    << 戻る || ホームページ || 最新の掲示板へ